AirNav   TITAN Aviation Fuels
 
 1069 users online  

FD27 Cuyler Field Airport
Glen St Mary, Florida, USA

GOING TO GLEN ST MARY?


FAA INFORMATION EFFECTIVE 22 APRIL 2021

Location

FAA Identifier: FD27
Lat/Long: 30-21-45.8400N 082-13-34.4170W
30-21.764000N 082-13.573617W
30.3627333,-82.2262269
(estimated)
Elevation: 120 ft. / 37 m (estimated)
Variation: 03W (1985)
From city: 1 mile N of GLEN ST MARY, FL
Time zone: UTC -4 (UTC -5 during Standard Time)
Zip code: 32040

Airport Operations

Airport use: Private use. Permission required prior to landing
Activation date: 01/1985
Control tower: no
ARTCC: JACKSONVILLE CENTER
FSS: GAINESVILLE FLIGHT SERVICE STATION
Attendance: UNATNDD
Wind indicator: yes
Segmented circle: yes

Nearby radio navigation aids

VOR radial/distance  VOR name  Freq  Var
TAYr120/18.9TAYLOR VORTAC112.9003W
VQQr300/(19.6)CECIL VOR117.9003W
CRGr275/37.1CRAIG VORTAC114.5003W

 
NDB name  Hdg/Dist  Freq  Var  ID
LAKE CITY063/21.120403WLCQ .-.. -.-. --.-
REYNOLDS316/37.933807WRYD .-. -.-- -..

Airport Services

Runway Information

Runway 9/27

Dimensions: 3250 x 66 ft. / 991 x 20 m
Surface: turf
RUNWAY 9  RUNWAY 27
Traffic pattern: leftleft
Obstructions: 50 ft. trees, 1300 ft. from runway40 ft. pline, 1050 ft. from runway

Airport Ownership and Management from official FAA records

Ownership: Privately-owned
Owner: CUYLER FIELD HOMEOWNER'S ASSN, INC.
10652 CUYLER AIRFIELD LN
GLEN ST. MARY, FL 32040
Phone 904-653-2583
Manager: CURTIS MILLER
10652 CUYLER AIRFIELD LN
GLEN ST. MARY, FL 32040
Phone 904-653-2583

Airport Operational Statistics

Aircraft based on the field: 30
Single engine airplanes: 30
    

Additional Remarks

FOR CD CTC JACKSONVILLE APCH AT 904-741-0284.

Instrument Procedures

There are no published instrument procedures at FD27.

Some nearby airports with instrument procedures:

KVQQ - Cecil Airport (20 nm SE)
KLCQ - Lake City Gateway Airport (21 nm SW)
KHEG - Herlong Recreational Airport (22 nm E)
KJAX - Jacksonville International Airport (29 nm E)
KNIP - Jacksonville Naval Air Station (Towers Field) (30 nm E)
 
Loc | Ops | Rwys | IFR | FBO | Links
Com | Nav | Svcs | Stats | Notes
Area around FD27 (Cuyler Field Airport)
 
Road maps at: MapQuest Bing Google
 
Aerial photo
WARNING: Photo may not be current or correct
Aerial photo of FD27 (Cuyler Field Airport)
Do you have a better or more recent aerial photo of Cuyler Field Airport that you would like to share? If so, please send us your photo.

 
Sectional chart

 
Airport distance calculator
Flying to Cuyler Field Airport? Find the distance to fly.

From to FD27

Sunrise and sunset
Times for 09-May-2021
 Local
(UTC-4)
 Zulu
(UTC)
Morning civil twilight06:1410:14
Sunrise06:4010:40
Sunset20:1100:11
Evening civil twilight20:3700:37

Current date and time
Zulu (UTC)  09-May-2021 21:20:52
Local (UTC-4)  09-May-2021 17:20:52
 
METAR
KVQQ 
20nm SE 
092050Z 18005KT 10SM CLR 31/15 A3003
KLCQ 
21nm SW 
092055Z AUTO 25009KT 10SM CLR 30/12 A3003 RMK AO2
KHEG 
22nm E 
092055Z AUTO VRB05G12KT 10SM CLR 32/16 A3004 RMK AO2
KJAX 
29nm E 
092056Z 16011KT 10SM FEW050 30/16 A3002 RMK AO2 SLP166 T03000161 56024 $
KNIP 
30nm E 
092053Z 17009KT 10SM FEW060 31/16 A3004 RMK AO2 SLP167 T03060156 56024
K42J 
32nm S 
092055Z AUTO 23009KT 9SM CLR 31/06 A3003 RMK A01 TSNO
KCRG 
37nm E 
092053Z 12011KT 10SM CLR 29/18 A3004 RMK AO2 SLP173 T02890183 56019
TAF
KVQQ 
20nm SE 
091726Z 0918/1018 16014KT P6SM FEW050 SCT250 FM100300 20005KT P6SM SCT015 BKN250 FM101400 22011KT P6SM SCT040 BKN250
NOTAMs
Click for the latest NOTAMs
NOTAMs are issued by the DoD/FAA and will open in a separate window not controlled by AirNav.

 

 
 

Would you like to see your business listed on this page?

 If your business provides an interesting product or service to pilots, flight crews, aircraft, or users of the Cuyler Field Airport, you should consider listing it here.  To start the listing process, click on the button below
 
Add a business
 

Other Pages about Cuyler Field Airport

Update a link
 
Copyright © AirNav, LLC. All rights reserved. Privacy Policy  Contact